Time;durP1;ratioP1;P1;durP2;ratioP2;P2;SDS_P1;SDS_P2;PMS_P1;PMS_P2;Temp;Humidity;BMP_temperature;BMP_pressure;BME280_temperature;BME280_humidity;BME280_pressure;Samples;Min_cycle;Max_cycle;Signal;HPM_P1;HPM_P2
2022/05/11 00:01:59;;;;;;;11.30;7.32;;;;;;;17.59;100.00;100491.19;5193283;28;20059;-76
2022/05/11 00:04:29;;;;;;;9.50;7.50;;;;;;;17.45;100.00;100493.03;5190298;28;20030;-77
2022/05/11 00:07:00;;;;;;;9.25;6.95;;;;;;;17.43;100.00;100486.97;5190585;28;20532;-77
2022/05/11 00:09:30;;;;;;;13.73;7.45;;;;;;;17.49;100.00;100489.25;5194223;28;20033;-77
2022/05/11 00:12:00;;;;;;;9.17;6.90;;;;;;;17.43;100.00;100492.28;5190194;28;20037;-76
2022/05/11 00:14:30;;;;;;;12.17;7.20;;;;;;;17.26;100.00;100479.28;5193778;28;20720;-77
2022/05/11 00:17:01;;;;;;;12.00;7.47;;;;;;;17.27;100.00;100468.63;5201223;28;20357;-77
2022/05/11 00:19:31;;;;;;;9.80;6.93;;;;;;;17.39;100.00;100467.00;5194161;28;20276;-77
2022/05/11 00:22:02;;;;;;;12.73;6.72;;;;;;;17.49;100.00;100474.22;5189900;28;20034;-77
2022/05/11 00:24:32;;;;;;;8.82;6.68;;;;;;;17.68;100.00;100463.31;5194853;28;20028;-77
2022/05/11 00:27:03;;;;;;;10.50;6.57;;;;;;;17.66;100.00;100459.91;5190106;28;20790;-77
2022/05/11 00:29:34;;;;;;;10.13;7.05;;;;;;;17.54;100.00;100468.66;5173599;28;20113;-77
2022/05/11 00:32:04;;;;;;;9.00;6.60;;;;;;;17.58;100.00;100462.19;5182568;28;20508;-77
2022/05/11 00:34:35;;;;;;;8.50;5.88;;;;;;;17.57;100.00;100460.50;5193778;28;20040;-77
2022/05/11 00:37:05;;;;;;;10.70;7.10;;;;;;;17.58;100.00;100456.91;5190113;28;20018;-77
2022/05/11 00:39:35;;;;;;;10.18;6.80;;;;;;;17.74;100.00;100457.59;5189570;28;20357;-77
2022/05/11 00:42:06;;;;;;;10.77;5.73;;;;;;;17.93;100.00;100458.91;5189594;28;20488;-77
2022/05/11 00:44:36;;;;;;;10.48;7.22;;;;;;;17.72;100.00;100455.06;5193472;28;20839;-77
2022/05/11 00:47:31;;;;;;;9.05;6.55;;;;;;;17.61;100.00;100454.06;5200923;28;20091;-77
2022/05/11 00:50:24;;;;;;;10.07;7.50;;;;;;;17.60;100.00;100455.88;5192882;28;20039;-77
2022/05/11 00:52:59;;;;;;;11.00;6.97;;;;;;;17.70;100.00;100443.75;5190770;28;20108;-77
2022/05/11 00:55:35;;;;;;;9.30;6.70;;;;;;;17.91;100.00;100446.75;5197296;28;20032;-77
2022/05/11 00:58:19;;;;;;;10.93;7.40;;;;;;;17.36;100.00;100449.56;5195941;28;20017;-77
2022/05/11 01:00:50;;;;;;;13.35;7.93;;;;;;;17.19;100.00;100444.50;5191069;28;20021;-77
2022/05/11 01:03:29;;;;;;;13.60;7.68;;;;;;;17.08;100.00;100440.81;5190928;28;20403;-77
2022/05/11 01:05:59;;;;;;;14.70;7.05;;;;;;;17.09;100.00;100437.25;5192807;28;20725;-77
2022/05/11 01:08:30;;;;;;;10.63;7.38;;;;;;;17.12;100.00;100431.78;5189303;28;20028;-77
2022/05/11 01:11:02;;;;;;;10.82;6.97;;;;;;;17.14;100.00;100429.88;5191672;28;20032;-77
2022/05/11 01:13:34;;;;;;;9.40;7.10;;;;;;;17.00;100.00;100432.56;5189199;28;20025;-77
2022/05/11 01:16:05;;;;;;;10.35;7.50;;;;;;;17.03;100.00;100429.72;5193838;28;20087;-77
2022/05/11 01:18:38;;;;;;;12.52;7.55;;;;;;;17.22;100.00;100443.44;5179137;28;20472;-77
2022/05/11 01:21:09;;;;;;;11.82;8.02;;;;;;;17.06;100.00;100442.72;5192646;28;20793;-77
2022/05/11 01:23:52;;;;;;;13.10;8.10;;;;;;;16.90;100.00;100432.31;5189882;28;20025;-77
2022/05/11 01:26:22;;;;;;;13.70;7.90;;;;;;;16.90;100.00;100444.63;5200763;28;20147;-77
2022/05/11 01:28:54;;;;;;;10.45;8.18;;;;;;;16.70;100.00;100442.41;5192746;28;20113;-77
2022/05/11 01:31:24;;;;;;;13.13;8.52;;;;;;;16.61;100.00;100450.91;5189432;28;20114;-77
2022/05/11 01:33:55;;;;;;;11.65;9.40;;;;;;;16.58;100.00;100451.09;5191637;28;20115;-77
2022/05/11 01:36:31;;;;;;;12.52;9.30;;;;;;;16.64;100.00;100445.44;5189789;28;20021;-77
2022/05/11 01:39:04;;;;;;;13.15;8.80;;;;;;;16.70;100.00;100444.22;5192336;28;20036;-77
2022/05/11 01:41:35;;;;;;;12.48;9.25;;;;;;;16.66;100.00;100443.56;5184512;28;20511;-77
2022/05/11 01:44:11;;;;;;;12.80;9.00;;;;;;;16.72;100.00;100437.88;5191876;28;20037;-77
2022/05/11 01:46:48;;;;;;;16.48;9.65;;;;;;;16.61;100.00;100436.88;5199841;28;20272;-77
2022/05/11 01:49:19;;;;;;;11.35;9.07;;;;;;;16.63;100.00;100437.63;5192622;28;20526;-77
2022/05/11 01:51:50;;;;;;;12.45;9.32;;;;;;;16.69;100.00;100442.53;5189979;28;20052;-77
2022/05/11 01:54:20;;;;;;;11.75;9.23;;;;;;;16.57;100.00;100449.38;5191979;28;20029;-77
2022/05/11 01:56:51;;;;;;;14.27;9.60;;;;;;;16.56;100.00;100445.06;5200439;28;20095;-77
2022/05/11 01:59:21;;;;;;;13.05;9.18;;;;;;;16.58;100.00;100445.81;5190356;28;20390;-77
2022/05/11 02:01:51;;;;;;;11.82;9.05;;;;;;;16.60;100.00;100441.31;5190472;28;20535;-77
2022/05/11 02:09:59;;;;;;;15.30;9.45;;;;;;;16.39;100.00;100428.59;5189004;28;20033;-77
2022/05/11 02:12:30;;;;;;;13.20;9.37;;;;;;;16.48;100.00;100434.16;5191853;28;20471;-77
2022/05/11 02:15:00;;;;;;;14.20;8.83;;;;;;;16.53;100.00;100437.34;5192578;28;20845;-77
2022/05/11 02:17:30;;;;;;;13.30;9.70;;;;;;;16.60;100.00;100436.03;5200156;28;20319;-77
2022/05/11 02:20:01;;;;;;;12.30;9.20;;;;;;;16.56;100.00;100431.88;5188808;28;20064;-77
2022/05/11 02:22:31;;;;;;;14.88;10.50;;;;;;;16.54;100.00;100425.84;5192271;28;20773;-77
2022/05/11 02:25:01;;;;;;;14.07;9.73;;;;;;;16.43;100.00;100425.69;5197365;28;20029;-77
2022/05/11 02:27:32;;;;;;;14.25;10.40;;;;;;;16.34;100.00;100422.69;5199654;28;20382;-76
2022/05/11 02:30:05;;;;;;;13.95;10.48;;;;;;;16.33;100.00;100427.13;5195931;28;20091;-77
2022/05/11 02:32:36;;;;;;;13.10;9.90;;;;;;;16.44;100.00;100419.47;5188435;28;20022;-77
2022/05/11 02:35:13;;;;;;;12.85;9.70;;;;;;;16.48;100.00;100428.00;5178235;28;20395;-77
2022/05/11 02:37:50;;;;;;;14.75;10.52;;;;;;;16.33;100.00;100421.00;5193447;28;20113;-77
2022/05/11 02:40:24;;;;;;;13.23;9.82;;;;;;;16.41;100.00;100421.44;5193426;28;20037;-77
2022/05/11 02:42:55;;;;;;;13.45;9.82;;;;;;;16.31;100.00;100413.19;5194622;28;20029;-77
2022/05/11 02:45:26;;;;;;;16.38;11.25;;;;;;;16.26;100.00;100411.78;5199480;28;20391;-77
2022/05/11 02:47:56;;;;;;;16.00;10.75;;;;;;;16.28;100.00;100412.53;5200929;28;20105;-77
2022/05/11 02:50:32;;;;;;;14.15;10.45;;;;;;;16.30;100.00;100400.97;5194926;28;20101;-77
2022/05/11 02:53:07;;;;;;;13.93;11.00;;;;;;;16.35;100.00;100406.81;5191770;28;20056;-77
2022/05/11 02:55:40;;;;;;;13.40;10.95;;;;;;;16.25;100.00;100405.63;5199750;28;20566;-77
2022/05/11 02:58:13;;;;;;;15.75;11.52;;;;;;;16.22;100.00;100408.47;5192695;28;20079;-77
2022/05/11 03:00:45;;;;;;;15.60;11.57;;;;;;;16.20;100.00;100397.19;5192882;28;20033;-77
2022/05/11 03:03:18;;;;;;;16.25;11.45;;;;;;;16.13;100.00;100382.69;5193766;28;20083;-77
2022/05/11 03:05:52;;;;;;;16.77;11.82;;;;;;;16.11;100.00;100389.84;5193860;28;20208;-77
2022/05/11 03:08:22;;;;;;;15.43;11.35;;;;;;;16.16;100.00;100390.41;5193300;28;20112;-77
2022/05/11 03:10:52;;;;;;;19.10;11.63;;;;;;;16.30;100.00;100382.50;5194074;28;20121;-77
2022/05/11 03:13:23;;;;;;;17.40;11.83;;;;;;;16.11;100.00;100378.44;5192745;28;20034;-77
2022/05/11 03:15:53;;;;;;;16.92;12.57;;;;;;;15.99;100.00;100366.84;5200946;28;21027;-77
2022/05/11 03:18:24;;;;;;;14.77;12.10;;;;;;;15.98;100.00;100365.16;5199358;28;20441;-77
2022/05/11 03:20:56;;;;;;;15.93;12.63;;;;;;;15.96;100.00;100355.63;5192313;28;20029;-78
2022/05/11 03:23:27;;;;;;;19.08;13.55;;;;;;;15.97;100.00;100355.56;5192878;28;20025;-77
2022/05/11 03:25:57;;;;;;;18.52;12.60;;;;;;;16.05;100.00;100345.38;5202534;28;20394;-77
2022/05/11 03:28:28;;;;;;;15.68;12.25;;;;;;;16.12;100.00;100357.25;5195887;28;20386;-77
2022/05/11 03:30:58;;;;;;;16.63;13.05;;;;;;;15.99;100.00;100366.84;5194360;28;20056;-77
2022/05/11 03:36:17;;;;;;;16.60;13.00;;;;;;;15.96;100.00;100371.44;5190327;28;20044;-78
2022/05/11 03:38:48;;;;;;;19.48;13.75;;;;;;;15.99;100.00;100366.84;5188432;28;20034;-77
2022/05/11 03:41:18;;;;;;;18.77;13.73;;;;;;;15.97;100.00;100362.59;5182018;28;20435;-77
2022/05/11 03:43:48;;;;;;;16.92;12.73;;;;;;;16.00;100.00;100360.63;5191315;28;20029;-77
2022/05/11 03:46:18;;;;;;;18.08;13.63;;;;;;;15.99;100.00;100358.94;5192685;28;20049;-78
2022/05/11 03:48:49;;;;;;;18.52;13.95;;;;;;;16.02;100.00;100350.84;5192259;28;20029;-77
2022/05/11 03:51:19;;;;;;;19.17;13.90;;;;;;;16.00;100.00;100352.72;5192162;28;20475;-78
2022/05/11 03:53:50;;;;;;;18.00;13.65;;;;;;;16.07;100.00;100359.31;5187651;28;20448;-78
2022/05/11 03:56:20;;;;;;;19.55;14.55;;;;;;;16.01;100.00;100351.78;5182665;28;20026;-77
2022/05/11 03:58:50;;;;;;;16.03;11.47;;;;;;;15.97;100.00;100355.56;5191038;28;20604;-77
2022/05/11 04:01:21;;;;;;;18.05;13.95;;;;;;;15.94;100.00;100352.25;5182796;28;20674;-77
2022/05/11 04:03:51;;;;;;;18.65;14.07;;;;;;;16.09;100.00;100348.69;5186351;28;20048;-76
2022/05/11 04:06:22;;;;;;;16.65;13.18;;;;;;;16.10;100.00;100351.25;5192573;28;20566;-76
2022/05/11 04:08:52;;;;;;;17.67;13.50;;;;;;;16.06;100.00;100339.16;5191703;28;20029;-76
2022/05/11 04:11:23;;;;;;;17.67;13.15;;;;;;;16.20;100.00;100340.97;5196116;28;20272;-76
2022/05/11 04:13:54;;;;;;;19.25;14.70;;;;;;;16.10;100.00;100340.69;5192999;28;20523;-76
2022/05/11 04:16:24;;;;;;;17.77;14.13;;;;;;;16.02;100.00;100332.38;5191171;28;20463;-76
2022/05/11 04:18:54;;;;;;;19.35;13.73;;;;;;;16.03;100.00;100334.06;5192928;28;20028;-76
2022/05/11 04:21:26;;;;;;;21.25;14.75;;;;;;;16.00;100.00;100338.69;5190613;28;20029;-76
2022/05/11 04:23:56;;;;;;;20.27;15.32;;;;;;;15.98;100.00;100338.78;5192791;28;20108;-76
2022/05/11 04:26:30;;;;;;;22.48;15.73;;;;;;;15.97;100.00;100326.56;5200649;28;20530;-77
2022/05/11 04:29:00;;;;;;;22.55;14.88;;;;;;;16.02;100.00;100331.56;5194014;28;20018;-77
2022/05/11 04:31:31;;;;;;;20.40;15.37;;;;;;;16.10;100.00;100324.88;5193174;28;20030;-76
2022/05/11 04:34:01;;;;;;;19.77;14.85;;;;;;;16.20;100.00;100323.34;5182731;28;20269;-76
2022/05/11 04:36:32;;;;;;;22.10;15.68;;;;;;;16.04;100.00;100316.50;5181787;28;20080;-76
2022/05/11 04:39:02;;;;;;;20.70;16.05;;;;;;;16.00;100.00;100320.22;5194109;28;20053;-77
2022/05/11 04:41:33;;;;;;;18.58;15.27;;;;;;;16.15;100.00;100316.66;5193623;28;20037;-79
2022/05/11 04:44:04;;;;;;;22.92;15.73;;;;;;;16.33;100.00;100313.72;5184129;28;20033;-76
2022/05/11 04:46:38;;;;;;;19.08;14.20;;;;;;;16.27;100.00;100316.75;5193583;28;20067;-76
2022/05/11 04:49:19;;;;;;;18.92;14.68;;;;;;;16.41;100.00;100313.28;5190558;28;20083;-77
2022/05/11 04:51:57;;;;;;;23.60;14.27;;;;;;;16.36;100.00;100305.63;5191714;28;20032;-76
2022/05/11 04:54:28;;;;;;;19.63;14.02;;;;;;;16.60;100.00;100306.72;5194409;28;20018;-77
2022/05/11 04:56:58;;;;;;;19.02;14.05;;;;;;;16.57;100.00;100312.19;5183979;28;20416;-76
2022/05/11 04:59:28;;;;;;;20.03;13.17;;;;;;;16.69;100.00;100321.97;5190136;28;20025;-77
2022/05/11 05:02:00;;;;;;;19.55;13.30;;;;;;;16.83;100.00;100319.28;5200396;28;20323;-77
2022/05/11 05:04:31;;;;;;;17.90;14.00;;;;;;;16.71;100.00;100321.88;5193801;28;20088;-77
2022/05/11 05:07:02;;;;;;;18.92;13.48;;;;;;;16.72;100.00;100323.56;5192509;28;20142;-76
2022/05/11 05:09:32;;;;;;;17.25;13.55;;;;;;;16.67;100.00;100329.13;5189068;28;20101;-77
2022/05/11 05:12:04;;;;;;;18.07;13.13;;;;;;;16.92;100.00;100323.94;5192793;28;20132;-76
2022/05/11 05:14:34;;;;;;;19.27;13.95;;;;;;;16.98;100.00;100329.66;5185506;28;20338;-77
2022/05/11 05:17:09;;;;;;;20.33;13.95;;;;;;;16.88;100.00;100323.31;5192405;28;20029;-77
2022/05/11 05:19:42;;;;;;;18.10;14.35;;;;;;;17.02;100.00;100325.03;5188686;28;20037;-76
2022/05/11 05:22:12;;;;;;;19.25;13.77;;;;;;;16.92;100.00;100319.53;5191459;28;20032;-76
2022/05/11 05:24:44;;;;;;;18.15;12.85;;;;;;;17.00;100.00;100324.31;5193809;28;20036;-76
2022/05/11 05:27:16;;;;;;;22.02;13.80;;;;;;;17.04;100.00;100318.72;5199196;28;20812;-77
2022/05/11 05:32:37;;;;;;;19.23;13.30;;;;;;;17.12;100.00;100320.88;5199950;28;20083;-77
2022/05/11 05:35:10;;;;;;;19.55;14.57;;;;;;;17.10;100.00;100322.72;5192196;28;20025;-77
2022/05/11 05:37:40;;;;;;;18.92;13.98;;;;;;;17.23;100.00;100323.63;5189786;28;20097;-77
2022/05/11 05:40:11;;;;;;;20.88;14.52;;;;;;;17.27;100.00;100318.03;5191395;28;20113;-77
2022/05/11 05:42:41;;;;;;;18.65;13.40;;;;;;;17.35;100.00;100323.66;5194878;28;20038;-77
2022/05/11 05:45:12;;;;;;;17.25;13.25;;;;;;;17.44;100.00;100323.06;5198877;28;20021;-77
2022/05/11 05:47:42;;;;;;;21.98;13.15;;;;;;;17.56;100.00;100327.53;5198814;28;20072;-77
2022/05/11 05:50:12;;;;;;;16.88;13.13;;;;;;;17.54;100.00;100312.72;5198396;28;20021;-77
2022/05/11 05:52:46;;;;;;;18.27;12.93;;;;;;;17.75;100.00;100306.81;5197668;28;20440;-77
2022/05/11 05:55:19;;;;;;;17.08;13.15;;;;;;;18.08;100.00;100309.75;5195822;28;20047;-78
2022/05/11 05:57:49;;;;;;;15.93;11.48;;;;;;;18.19;100.00;100306.34;5197839;28;20113;-77
2022/05/11 06:00:20;;;;;;;14.37;11.97;;;;;;;18.13;100.00;100314.69;5196704;28;20148;-78
2022/05/11 06:02:50;;;;;;;15.25;12.32;;;;;;;18.28;100.00;100309.22;5204421;28;20280;-78
2022/05/11 06:05:20;;;;;;;17.47;12.10;;;;;;;18.49;100.00;100305.03;5193355;28;20114;-78
2022/05/11 06:07:51;;;;;;;15.30;11.27;;;;;;;18.94;100.00;100302.50;5194775;28;20731;-78
2022/05/11 06:10:22;;;;;;;17.47;11.20;;;;;;;19.28;100.00;100292.94;5193708;28;20134;-78
2022/05/11 06:12:53;;;;;;;15.38;11.10;;;;;;;19.44;100.00;100296.94;5194750;28;20276;-78
2022/05/11 06:15:23;;;;;;;14.75;11.00;;;;;;;19.61;100.00;100293.84;5192553;28;20029;-78
2022/05/11 06:17:54;;;;;;;13.88;9.25;;;;;;;19.75;100.00;100290.16;5192073;28;20037;-79
2022/05/11 06:20:24;;;;;;;12.68;9.60;;;;;;;19.26;100.00;100287.72;5193333;28;20049;-79
2022/05/11 06:22:54;;;;;;;15.25;10.20;;;;;;;19.35;100.00;100284.41;5194933;28;20483;-79
2022/05/11 06:25:25;;;;;;;13.98;9.48;;;;;;;19.58;100.00;100282.66;5193118;28;20021;-78
2022/05/11 06:27:56;;;;;;;13.05;9.88;;;;;;;19.58;100.00;100277.34;5190833;28;20018;-78
2022/05/11 06:30:28;;;;;;;11.90;9.60;;;;;;;19.76;100.00;100287.34;5195959;28;20094;-80
2022/05/11 06:33:00;;;;;;;12.65;9.60;;;;;;;19.87;100.00;100281.22;5203971;28;20156;-79
2022/05/11 06:35:30;;;;;;;14.35;10.38;;;;;;;19.65;100.00;100279.38;5192614;28;20058;-78
2022/05/11 06:38:07;;;;;;;15.00;9.77;;;;;;;19.70;100.00;100269.28;5195662;28;20041;-78
2022/05/11 06:40:38;;;;;;;13.32;9.65;;;;;;;19.52;100.00;100268.06;5188917;28;20343;-80
2022/05/11 06:43:08;;;;;;;12.75;9.32;;;;;;;19.34;100.00;100266.81;5195666;28;20567;-78
2022/05/11 06:45:38;;;;;;;16.13;10.03;;;;;;;19.46;100.00;100265.03;5195153;28;20053;-79
2022/05/11 06:48:09;;;;;;;14.55;10.20;;;;;;;19.18;100.00;100258.34;5193206;28;20342;-79
2022/05/11 06:50:40;;;;;;;14.05;9.75;;;;;;;19.46;100.00;100249.13;5193379;28;20057;-80
2022/05/11 06:53:13;;;;;;;13.57;9.35;;;;;;;19.45;100.00;100261.50;5194885;28;20101;-79
2022/05/11 07:01:41;;;;;;;13.35;9.88;;;;;;;19.75;100.00;100245.88;5170443;28;20037;-78
2022/05/11 07:04:11;;;;;;;16.37;9.87;;;;;;;19.57;100.00;100241.16;5161735;28;20274;-79
2022/05/11 07:06:41;;;;;;;12.37;9.90;;;;;;;19.72;100.00;100239.97;5170406;28;20280;-78
2022/05/11 07:09:12;;;;;;;16.42;10.60;;;;;;;20.85;98.36;100235.97;5193129;28;20325;-79
2022/05/11 07:14:31;;;;;;;13.18;8.98;;;;;;;23.01;86.66;100222.84;5191630;28;20272;-80
2022/05/11 07:17:02;;;;;;;12.63;8.55;;;;;;;25.08;80.53;100206.03;5194998;28;20480;-80
2022/05/11 07:19:33;;;;;;;11.25;7.53;;;;;;;26.82;74.83;100199.03;5173788;28;20506;-80
2022/05/11 07:22:03;;;;;;;8.38;6.93;;;;;;;27.09;73.86;100203.22;5190997;28;20026;-80
2022/05/11 07:24:34;;;;;;;12.30;6.82;;;;;;;27.09;71.99;100203.22;5187514;28;20480;-82
2022/05/11 07:27:04;;;;;;;8.82;6.15;;;;;;;27.64;69.79;100206.88;5194880;28;20030;-81
2022/05/11 07:29:35;;;;;;;11.25;6.85;;;;;;;27.53;70.29;100197.31;5195132;28;20026;-81
2022/05/11 07:32:06;;;;;;;8.82;6.13;;;;;;;27.90;67.30;100202.94;5202286;28;20048;-79
2022/05/11 07:34:38;;;;;;;10.27;6.32;;;;;;;29.28;63.30;100192.00;5187666;28;20395;-80
2022/05/11 07:37:09;;;;;;;8.02;6.10;;;;;;;27.65;70.53;100197.78;5191193;28;20018;-80
2022/05/11 07:39:39;;;;;;;6.18;5.55;;;;;;;28.64;68.46;100187.13;5194139;28;20037;-81
2022/05/11 07:42:09;;;;;;;6.80;5.20;;;;;;;29.13;64.67;100188.44;5191318;28;20033;-81
2022/05/11 07:44:40;;;;;;;7.75;5.60;;;;;;;29.45;64.08;100177.34;5196074;28;20762;-80
2022/05/11 07:47:10;;;;;;;6.93;5.63;;;;;;;29.09;62.99;100182.56;5197511;28;20381;-79
2022/05/11 07:49:41;;;;;;;8.73;5.45;;;;;;;30.49;62.15;100176.09;5176536;28;20057;-81
2022/05/11 07:52:11;;;;;;;7.75;4.72;;;;;;;31.34;61.92;100179.44;5173995;28;20025;-79
2022/05/11 07:54:42;;;;;;;8.47;4.40;;;;;;;32.61;56.30;100172.44;5196254;28;20388;-80
2022/05/11 08:00:06;;;;;;;4.28;3.50;;;;;;;28.73;64.78;100179.81;5194131;28;20041;-80
2022/05/11 08:02:39;;;;;;;7.30;4.40;;;;;;;30.39;62.09;100164.81;5202344;28;20109;-80
2022/05/11 08:05:13;;;;;;;5.60;4.00;;;;;;;30.83;59.53;100165.47;5194118;28;20032;-79
2022/05/11 08:07:52;;;;;;;7.45;3.97;;;;;;;28.62;66.41;100167.63;5191672;28;20113;-79
2022/05/11 08:10:29;;;;;;;5.60;3.90;;;;;;;28.00;66.28;100167.81;5174171;28;20029;-79
2022/05/11 08:13:04;;;;;;;5.10;4.30;;;;;;;27.68;66.38;100166.06;5194197;28;20025;-80
2022/05/11 08:15:38;;;;;;;5.68;3.90;;;;;;;26.48;66.72;100164.44;5187446;28;20083;-78
2022/05/11 08:18:09;;;;;;;6.03;4.07;;;;;;;26.02;68.00;100167.66;5194350;28;20025;-79
2022/05/11 08:20:43;;;;;;;6.97;4.00;;;;;;;25.48;72.39;100165.34;5191198;28;20080;-78
2022/05/11 08:23:14;;;;;;;6.30;4.20;;;;;;;25.64;73.71;100162.78;5192852;28;20037;-79
2022/05/11 08:25:46;;;;;;;8.02;4.50;;;;;;;24.93;72.18;100158.56;5196327;28;20025;-78
2022/05/11 08:28:20;;;;;;;4.10;3.05;;;;;;;26.00;68.93;100145.53;5196038;28;20033;-79
2022/05/11 08:33:41;;;;;;;5.07;3.53;;;;;;;26.00;66.86;100142.88;5198050;28;20087;-79
2022/05/11 08:36:16;;;;;;;7.07;3.55;;;;;;;26.27;66.71;100142.59;5192465;28;20108;-79
2022/05/11 08:38:49;;;;;;;6.18;3.28;;;;;;;26.69;67.33;100138.81;5191595;28;20014;-79
2022/05/11 08:41:35;;;;;;;5.53;3.20;;;;;;;27.19;63.72;100140.34;5191397;28;20026;-79
2022/05/11 08:44:13;;;;;;;5.72;3.05;;;;;;;27.88;62.97;100140.47;5168730;28;20026;-79
2022/05/11 08:47:06;;;;;;;5.50;3.30;;;;;;;28.98;61.17;100131.03;5192289;28;20048;-79
2022/05/11 08:49:53;;;;;;;4.03;2.60;;;;;;;30.13;57.65;100124.03;5186746;28;20554;-79
2022/05/11 08:52:43;;;;;;;4.85;2.58;;;;;;;31.31;54.85;100117.72;5190506;28;20042;-79
2022/05/11 08:55:23;;;;;;;5.32;2.33;;;;;;;32.26;54.90;100115.94;5193485;28;20025;-80
2022/05/11 08:57:56;;;;;;;3.75;2.47;;;;;;;32.02;51.77;100119.16;5197414;28;20021;-79
2022/05/11 09:00:27;;;;;;;3.85;2.30;;;;;;;30.88;53.50;100121.50;5192985;28;20037;-79
2022/05/11 09:03:45;;;;;;;3.83;2.25;;;;;;;31.39;53.93;100120.25;5201508;28;20049;-79
2022/05/11 09:06:28;;;;;;;3.42;2.30;;;;;;;30.72;53.08;100114.69;5182989;28;20103;-79
2022/05/11 09:09:00;;;;;;;4.90;2.20;;;;;;;30.71;53.23;100113.03;5189749;28;20034;-79
2022/05/11 09:11:36;;;;;;;3.80;2.60;;;;;;;29.70;54.02;100111.41;5192643;28;20125;-79
2022/05/11 09:14:06;;;;;;;4.13;2.30;;;;;;;30.23;55.58;100106.50;5186028;28;20036;-78
2022/05/11 09:16:50;;;;;;;4.90;2.63;;;;;;;29.69;54.69;100097.13;5192227;28;20029;-79
2022/05/11 09:19:25;;;;;;;6.07;2.70;;;;;;;30.15;54.62;100105.78;5191177;28;20728;-79
2022/05/11 09:22:04;;;;;;;6.60;2.53;;;;;;;29.98;56.41;100096.22;5189538;28;20029;-79
2022/05/11 09:24:45;;;;;;;4.35;2.60;;;;;;;30.27;57.90;100101.56;5188923;28;20048;-79
2022/05/11 09:27:31;;;;;;;5.22;2.85;;;;;;;29.97;54.91;100094.56;5194196;28;20029;-79
2022/05/11 09:30:14;;;;;;;6.65;2.90;;;;;;;29.89;57.21;100095.50;5192469;28;20032;-79
2022/05/11 09:32:44;;;;;;;7.03;2.90;;;;;;;29.10;58.56;100087.31;5194783;28;20040;-78
2022/05/11 09:35:23;;;;;;;8.27;3.08;;;;;;;29.33;57.28;100090.78;5191030;28;20037;-78
2022/05/11 09:38:16;;;;;;;6.78;2.90;;;;;;;29.15;57.81;100089.47;5191263;28;20025;-79
2022/05/11 09:41:12;;;;;;;3.25;2.50;;;;;;;29.77;58.49;100083.53;5179815;28;20098;-79
2022/05/11 09:43:46;;;;;;;7.15;2.65;;;;;;;29.74;57.71;100085.78;5187453;28;20033;-79
2022/05/11 09:46:31;;;;;;;5.82;2.60;;;;;;;29.25;58.89;100084.66;5191128;28;20116;-79
2022/05/11 09:49:26;;;;;;;4.18;2.70;;;;;;;29.21;58.21;100084.19;5192595;28;20105;-79
2022/05/11 09:51:58;;;;;;;4.68;2.70;;;;;;;29.63;57.23;100072.78;5191017;28;20033;-79
2022/05/11 09:54:32;;;;;;;6.22;2.72;;;;;;;29.53;57.31;100074.91;5192789;28;20029;-79
2022/05/11 09:57:09;;;;;;;4.82;2.55;;;;;;;29.69;56.39;100072.00;5201104;28;20095;-79
2022/05/11 09:59:51;;;;;;;4.63;2.40;;;;;;;29.16;56.65;100080.38;5186489;28;20024;-79
2022/05/11 10:02:35;;;;;;;5.80;2.45;;;;;;;29.97;56.09;100075.69;5255168;23;20076;-77
2022/05/11 10:05:29;;;;;;;5.68;2.55;;;;;;;29.63;56.68;100076.31;5195017;28;20032;-80
2022/05/11 10:08:21;;;;;;;3.88;2.03;;;;;;;28.59;54.58;100068.47;5220429;28;20057;-79
2022/05/11 10:10:59;;;;;;;4.65;2.33;;;;;;;28.58;57.19;100079.38;5209775;28;20478;-80
2022/05/11 10:13:48;;;;;;;5.90;2.10;;;;;;;28.55;56.82;100069.84;5218979;28;20025;-79
2022/05/11 10:22:24;;;;;;;3.72;2.15;;;;;;;27.77;57.48;100056.75;5203882;28;20059;-79
2022/05/11 10:25:03;;;;;;;4.43;2.10;;;;;;;27.53;58.38;100046.94;5213657;28;20029;-81
2022/05/11 10:27:51;;;;;;;6.97;2.35;;;;;;;27.93;57.14;100057.47;5210814;28;20414;-79
2022/05/11 10:30:33;;;;;;;3.92;2.10;;;;;;;27.92;57.28;100044.25;5204978;28;20033;-82
2022/05/11 10:33:24;;;;;;;5.03;2.20;;;;;;;27.77;56.09;100043.31;5201398;28;20051;-80
2022/05/11 10:36:16;;;;;;;3.08;1.80;;;;;;;27.72;57.32;100038.47;5215370;28;20445;-78
2022/05/11 10:39:17;;;;;;;3.08;2.38;;;;;;;27.76;57.33;100033.59;5202214;28;20022;-79
2022/05/11 10:42:03;;;;;;;4.07;2.05;;;;;;;27.61;57.16;100038.81;5207094;28;20025;-78
2022/05/11 10:45:02;;;;;;;6.90;2.00;;;;;;;27.46;55.22;100029.00;5211031;28;20507;-78
2022/05/11 10:47:51;;;;;;;2.92;2.00;;;;;;;27.31;54.65;100020.81;5220221;28;20036;-79
2022/05/11 10:50:40;;;;;;;5.15;1.85;;;;;;;27.26;55.31;100022.38;5218069;28;20392;-79
2022/05/11 10:53:42;;;;;;;4.93;2.05;;;;;;;26.91;55.91;100023.63;5214663;28;20021;-80
2022/05/11 10:56:26;;;;;;;10.55;2.28;;;;;;;27.36;57.07;100021.16;5196021;28;20087;-79
2022/05/11 10:59:06;;;;;;;3.50;2.20;;;;;;;27.55;55.97;100012.69;5211970;28;20068;-80
2022/05/11 11:01:55;;;;;;;4.28;2.10;;;;;;;27.58;57.57;100012.31;5206372;28;20394;-80
2022/05/11 11:04:47;;;;;;;4.25;2.30;;;;;;;27.93;55.33;100019.03;5213041;28;20079;-81
2022/05/11 11:07:36;;;;;;;4.25;1.88;;;;;;;27.72;56.29;100013.44;5215019;28;20049;-80
2022/05/11 11:10:24;;;;;;;3.15;2.10;;;;;;;27.83;56.89;100003.16;5213522;28;20650;-78
2022/05/11 11:13:03;;;;;;;3.53;1.92;;;;;;;27.86;56.26;99992.03;5217085;28;20029;-81
2022/05/11 11:15:38;;;;;;;3.28;2.10;;;;;;;27.49;56.31;100002.66;5220197;28;20159;-78
2022/05/11 11:18:11;;;;;;;4.00;2.20;;;;;;;27.37;57.39;99993.31;5216887;28;20017;-80
2022/05/11 11:20:45;;;;;;;3.63;2.13;;;;;;;27.35;56.69;99991.78;5218920;28;20282;-81
2022/05/11 11:23:15;;;;;;;6.07;2.13;;;;;;;27.22;57.54;99994.19;5216277;28;20030;-80
2022/05/11 11:25:59;;;;;;;5.10;2.00;;;;;;;27.11;57.35;99987.34;5211487;28;20021;-80
2022/05/11 11:28:33;;;;;;;2.75;2.05;;;;;;;27.34;56.81;99985.59;5215397;28;20033;-80
2022/05/11 11:31:04;;;;;;;3.70;2.37;;;;;;;27.53;56.94;99985.16;5209825;28;20060;-78
2022/05/11 11:33:39;;;;;;;3.63;2.17;;;;;;;27.46;55.62;99984.19;5215053;28;20486;-80
2022/05/11 11:36:15;;;;;;;3.60;2.40;;;;;;;27.24;55.49;99979.59;5215299;28;20025;-79
2022/05/11 11:38:48;;;;;;;7.43;2.17;;;;;;;27.32;55.96;99974.22;5216919;28;20032;-80
2022/05/11 11:41:22;;;;;;;4.05;2.00;;;;;;;27.17;56.39;99977.78;5214899;28;20380;-78
2022/05/11 11:43:57;;;;;;;5.70;2.17;;;;;;;26.95;56.36;99984.69;5218439;28;20043;-79
2022/05/11 11:46:27;;;;;;;2.95;1.88;;;;;;;27.08;55.40;99971.56;5215315;28;20087;-81
2022/05/11 11:49:03;;;;;;;3.28;2.38;;;;;;;27.05;56.86;99974.63;5211345;28;20029;-81
2022/05/11 11:51:50;;;;;;;4.65;2.10;;;;;;;27.16;56.41;99976.97;5215098;28;20688;-78
2022/05/11 11:54:39;;;;;;;4.40;2.10;;;;;;;27.05;56.45;99977.31;5214625;28;20112;-79
2022/05/11 11:57:14;;;;;;;3.72;1.70;;;;;;;27.12;57.26;99972.13;5199242;28;20045;-80
2022/05/11 11:59:57;;;;;;;4.43;2.08;;;;;;;26.94;57.89;99966.94;5214594;28;20037;-81
2022/05/11 12:02:38;;;;;;;4.85;1.90;;;;;;;27.34;55.52;99969.50;5206724;28;20049;-80
2022/05/11 12:05:32;;;;;;;2.45;1.80;;;;;;;27.36;56.89;99959.41;5211591;28;20037;-80
2022/05/11 12:17:10;;;;;;;3.60;2.30;;;;;;;26.78;56.30;99953.56;5211246;28;20083;-79
2022/05/11 12:19:57;;;;;;;4.68;2.20;;;;;;;26.80;56.36;99962.28;5212720;28;20071;-80
2022/05/11 12:22:29;;;;;;;3.42;2.00;;;;;;;26.90;56.63;99964.78;5216708;28;20079;-77
2022/05/11 12:25:09;;;;;;;3.95;2.30;;;;;;;26.63;56.15;99970.53;5202974;28;20051;-79
2022/05/11 12:27:39;;;;;;;3.42;1.98;;;;;;;26.65;56.45;99955.13;5203078;28;20461;-80
2022/05/11 12:30:40;;;;;;;4.65;1.90;;;;;;;26.76;57.22;99966.31;5213934;28;20056;-79